Time;durP1;ratioP1;P1;durP2;ratioP2;P2;SDS_P1;SDS_P2;PMS_P1;PMS_P2;Temp;Humidity;BMP_temperature;BMP_pressure;BME280_temperature;BME280_humidity;BME280_pressure;Samples;Min_cycle;Max_cycle;Signal;HPM_P1;HPM_P2
2021/04/13 00:00:29;;;;;;;8.15;5.07;;;;;;;9.17;45.43;101617.19;2578787;55;20113;-68
2021/04/13 00:03:02;;;;;;;8.13;5.25;;;;;;;9.12;45.77;101621.88;2573677;55;20644;-68
2021/04/13 00:05:38;;;;;;;8.23;5.15;;;;;;;9.17;45.14;101614.53;2573671;55;20113;-68
2021/04/13 00:08:28;;;;;;;8.80;5.50;;;;;;;9.18;45.56;101610.91;2573534;55;20492;-69
2021/04/13 00:11:04;;;;;;;9.15;5.35;;;;;;;9.17;45.53;101614.53;2573701;55;20560;-68
2021/04/13 00:13:39;;;;;;;7.90;5.15;;;;;;;9.09;45.41;101600.75;2578771;55;20117;-68
2021/04/13 00:16:10;;;;;;;9.02;5.22;;;;;;;9.10;44.90;101602.47;2578721;55;20112;-68
2021/04/13 00:18:55;;;;;;;8.70;5.18;;;;;;;9.24;45.01;101581.28;2578732;55;20165;-68
2021/04/13 00:21:27;;;;;;;8.27;5.15;;;;;;;9.33;44.76;101602.09;2578628;55;20101;-68
2021/04/13 00:24:00;;;;;;;11.75;6.30;;;;;;;9.31;45.22;101595.97;2573566;55;20527;-68
2021/04/13 00:26:30;;;;;;;7.90;5.20;;;;;;;9.30;45.34;101594.25;2579080;55;20109;-68
2021/04/13 00:29:11;;;;;;;10.02;6.07;;;;;;;9.29;44.67;101597.84;2578689;55;20117;-68
2021/04/13 00:31:42;;;;;;;9.55;5.32;;;;;;;9.22;45.17;101595.63;2579045;55;20106;-68
2021/04/13 00:34:23;;;;;;;8.30;5.43;;;;;;;9.20;45.12;101587.72;2573859;55;20125;-68
2021/04/13 00:36:55;;;;;;;7.25;4.97;;;;;;;9.17;45.42;101598.53;2578877;55;20113;-68
2021/04/13 00:39:27;;;;;;;9.52;5.43;;;;;;;9.13;45.46;101594.34;2578647;55;20131;-68
2021/04/13 00:41:57;;;;;;;;;;;;;;;9.22;45.01;101593.84;2573827;55;20116;-68
2021/04/13 00:44:27;;;;;;;8.75;4.93;;;;;;;9.11;45.77;101598.88;2578710;55;19989;-68
2021/04/13 00:46:59;;;;;;;9.02;5.82;;;;;;;9.06;45.68;101593.81;2578595;55;20123;-68
2021/04/13 00:49:37;;;;;;;10.07;5.72;;;;;;;9.02;46.01;101601.12;2578701;55;20624;-68
2021/04/13 00:52:11;;;;;;;7.95;5.28;;;;;;;8.98;46.10;101588.91;2578684;55;20138;-68
2021/04/13 00:54:44;;;;;;;9.85;5.80;;;;;;;8.96;46.25;101588.12;2573665;55;20105;-68
2021/04/13 00:57:17;;;;;;;7.87;4.95;;;;;;;8.88;46.41;101591.22;2578880;55;20116;-68
2021/04/13 00:59:49;;;;;;;12.48;5.90;;;;;;;8.88;46.52;101587.69;2573724;55;20117;-68
2021/04/13 01:02:24;;;;;;;11.25;5.30;;;;;;;8.84;46.74;101591.47;2578741;55;20121;-68
2021/04/13 01:05:00;;;;;;;8.95;5.37;;;;;;;8.88;46.20;101587.69;2578793;55;20119;-68
2021/04/13 01:07:32;;;;;;;10.20;5.40;;;;;;;8.84;46.60;101588.81;2578564;55;20127;-68
2021/04/13 01:10:08;;;;;;;10.07;5.22;;;;;;;8.82;47.13;101603.97;2578498;55;20113;-68
2021/04/13 01:12:41;;;;;;;9.63;5.45;;;;;;;8.74;47.37;101597.28;2578580;55;20127;-68
2021/04/13 01:15:13;;;;;;;11.68;5.40;;;;;;;8.68;47.63;101608.25;2578588;55;20727;-68
2021/04/13 01:17:44;;;;;;;9.02;5.50;;;;;;;8.68;47.19;101599.41;2578622;55;20101;-68
2021/04/13 01:20:22;;;;;;;7.35;5.25;;;;;;;8.73;47.34;101595.56;2578661;55;20646;-68
2021/04/13 01:22:58;;;;;;;11.20;5.25;;;;;;;8.68;47.34;101602.06;2573544;55;20651;-68
2021/04/13 01:25:29;;;;;;;8.05;5.12;;;;;;;8.60;47.00;101573.19;2578445;55;20113;-68
2021/04/13 01:28:02;;;;;;;8.13;5.78;;;;;;;8.70;47.47;101601.03;2578795;55;20125;-68
2021/04/13 01:30:34;;;;;;;7.93;5.95;;;;;;;8.66;47.33;101607.47;2578521;55;20112;-68
2021/04/13 01:33:11;;;;;;;10.02;5.80;;;;;;;8.61;47.75;101604.19;2578543;55;20121;-68
2021/04/13 01:35:43;;;;;;;7.70;5.30;;;;;;;8.62;47.56;101609.44;2573634;55;20131;-68
2021/04/13 01:38:18;;;;;;;7.82;5.68;;;;;;;8.56;47.84;101608.91;2578613;55;20140;-68
2021/04/13 01:41:02;;;;;;;10.55;5.50;;;;;;;8.51;47.89;101605.59;2578694;55;20127;-68
2021/04/13 01:43:36;;;;;;;9.75;5.35;;;;;;;8.48;48.13;101611.94;2573486;55;20112;-68
2021/04/13 01:46:08;;;;;;;7.60;4.85;;;;;;;8.46;47.98;101606.69;2578588;55;20127;-68
2021/04/13 01:48:38;;;;;;;6.90;5.62;;;;;;;8.51;48.24;101606.47;2573288;55;20114;-68
2021/04/13 01:51:12;;;;;;;10.60;5.70;;;;;;;8.44;48.04;101605.03;2573545;55;20159;-68
2021/04/13 01:53:42;;;;;;;9.15;6.43;;;;;;;8.41;48.37;101603.37;2573354;55;20102;-68
2021/04/13 01:56:14;;;;;;;;;;;;;;;8.49;47.49;101608.31;2573581;55;20155;-68
2021/04/13 01:58:53;;;;;;;9.68;5.65;;;;;;;8.27;48.42;101592.63;2573504;55;20011;-68
2021/04/13 02:01:31;;;;;;;9.75;5.72;;;;;;;8.29;48.70;101601.38;2578535;55;20121;-68
2021/04/13 02:04:09;;;;;;;9.38;5.97;;;;;;;8.26;49.07;101606.84;2573258;55;20124;-68
2021/04/13 02:06:45;;;;;;;10.35;6.45;;;;;;;8.29;48.69;101607.56;2573393;55;20180;-68
2021/04/13 02:09:27;;;;;;;8.73;6.00;;;;;;;8.29;48.65;101599.59;2573434;55;20126;-68
2021/04/13 02:11:58;;;;;;;10.82;5.57;;;;;;;8.26;48.94;101602.38;2573212;55;20627;-68
2021/04/13 02:14:32;;;;;;;8.52;6.25;;;;;;;8.26;49.00;101604.19;2573347;55;20128;-68
2021/04/13 02:17:08;;;;;;;10.23;6.53;;;;;;;8.23;48.81;101599.03;2578292;55;20180;-68
2021/04/13 02:19:38;;;;;;;9.93;5.85;;;;;;;8.17;49.21;101592.25;2578260;55;20121;-68
2021/04/13 02:22:19;;;;;;;9.40;5.93;;;;;;;8.19;49.29;101601.84;2573284;55;20122;-68
2021/04/13 02:24:51;;;;;;;9.07;5.62;;;;;;;8.10;49.36;101597.00;2578277;55;20124;-68
2021/04/13 02:27:23;;;;;;;8.52;5.95;;;;;;;7.99;50.16;101600.22;2573352;55;20128;-69
2021/04/13 02:29:54;;;;;;;9.07;6.30;;;;;;;8.02;49.59;101604.50;2578348;55;20113;-68
2021/04/13 02:32:29;;;;;;;9.90;5.53;;;;;;;7.98;50.06;101602.94;2573227;55;20595;-68
2021/04/13 02:35:00;;;;;;;9.05;5.70;;;;;;;7.93;50.60;101596.06;2573246;55;20131;-68
2021/04/13 02:37:40;;;;;;;10.05;5.68;;;;;;;7.94;50.53;101600.44;2578444;55;20111;-68
2021/04/13 02:40:18;;;;;;;19.40;6.78;;;;;;;7.90;50.64;101596.19;2578543;55;20538;-68
2021/04/13 02:42:48;;;;;;;11.20;5.68;;;;;;;7.87;50.83;101601.66;2578342;55;20106;-68
2021/04/13 02:45:30;;;;;;;9.02;5.78;;;;;;;7.85;50.67;101592.91;2573218;55;20126;-68
2021/04/13 02:48:04;;;;;;;9.77;5.80;;;;;;;7.85;50.80;101592.91;2573282;55;20121;-69
2021/04/13 02:50:35;;;;;;;10.52;5.57;;;;;;;7.79;51.55;101598.53;2578331;55;20122;-68
2021/04/13 02:53:08;;;;;;;9.20;5.93;;;;;;;7.80;51.10;101594.94;2578155;55;20157;-68
2021/04/13 02:55:39;;;;;;;10.38;5.82;;;;;;;7.77;51.58;101595.09;2573173;55;20777;-68
2021/04/13 02:58:09;;;;;;;;;;;;;;;7.91;50.39;101589.94;2578638;55;20640;-68
2021/04/13 03:00:43;;;;;;;13.02;6.03;;;;;;;7.83;51.12;101602.78;2578336;55;20004;-68
2021/04/13 03:03:13;;;;;;;11.45;6.87;;;;;;;7.80;51.74;101602.91;2578278;55;20121;-68
2021/04/13 03:05:43;;;;;;;8.02;5.60;;;;;;;7.81;51.58;101596.66;2578244;55;20141;-68
2021/04/13 03:08:15;;;;;;;10.77;6.30;;;;;;;7.81;51.73;101601.97;2578725;55;20106;-68
2021/04/13 03:10:48;;;;;;;13.48;6.90;;;;;;;7.85;51.65;101597.34;2578955;55;20137;-68
2021/04/13 03:13:19;;;;;;;13.38;6.85;;;;;;;7.85;51.78;101603.53;2579103;55;20109;-68
2021/04/13 03:15:50;;;;;;;;;;;;;;;7.99;51.02;101594.00;2574151;55;20166;-68
2021/04/13 03:18:22;;;;;;;10.70;6.50;;;;;;;7.83;51.94;101592.13;2573962;55;20026;-68
2021/04/13 03:20:51;;;;;;;;;;;;;;;7.91;50.96;101597.91;2574112;55;20117;-68
2021/04/13 03:23:28;;;;;;;11.68;6.18;;;;;;;7.82;52.19;101590.44;2573777;55;20621;-68
2021/04/13 03:26:01;;;;;;;11.05;6.25;;;;;;;7.85;52.18;101598.22;2578934;55;20145;-68
2021/04/13 03:28:35;;;;;;;10.43;6.20;;;;;;;7.79;53.00;101593.22;2579088;55;20535;-68
2021/04/13 03:31:07;;;;;;;13.40;6.30;;;;;;;7.80;53.10;101595.81;2573842;55;20618;-68
2021/04/13 03:33:37;;;;;;;9.35;6.07;;;;;;;7.80;53.20;101594.94;2578937;55;20121;-68
2021/04/13 03:36:09;;;;;;;9.43;6.07;;;;;;;7.79;53.22;101593.22;2573783;55;20117;-68
2021/04/13 03:38:41;;;;;;;8.18;5.97;;;;;;;7.80;53.34;101586.97;2573818;55;20116;-68
2021/04/13 03:41:14;;;;;;;10.93;6.60;;;;;;;7.81;52.67;101596.66;2578885;55;20109;-69
2021/04/13 03:43:46;;;;;;;9.60;6.28;;;;;;;7.79;53.12;101603.84;2578829;55;20612;-68
2021/04/13 03:46:18;;;;;;;9.60;5.93;;;;;;;7.76;53.75;101588.91;2574076;55;20105;-68
2021/04/13 03:48:51;;;;;;;9.73;6.87;;;;;;;7.76;53.68;101604.00;2573683;55;20106;-68
2021/04/13 03:51:27;;;;;;;10.55;6.32;;;;;;;7.74;53.43;101589.94;2579014;55;20109;-68
2021/04/13 03:54:00;;;;;;;10.02;6.55;;;;;;;7.71;54.13;101595.38;2578892;55;20112;-68
2021/04/13 03:56:41;;;;;;;12.20;6.80;;;;;;;7.68;54.46;101600.84;2573746;55;20117;-68
2021/04/13 03:59:22;;;;;;;10.60;6.68;;;;;;;7.61;54.28;101601.12;2573718;55;20547;-68
2021/04/13 04:01:51;;;;;;;16.25;7.43;;;;;;;7.60;54.43;101599.41;2573772;55;20133;-69
2021/04/13 04:04:24;;;;;;;15.87;7.70;;;;;;;7.60;54.69;101598.59;2578848;55;20128;-68
2021/04/13 04:06:56;;;;;;;14.55;7.15;;;;;;;7.62;54.64;101599.34;2579178;55;20101;-68
2021/04/13 04:09:40;;;;;;;14.95;6.90;;;;;;;7.66;54.30;101604.44;2573697;55;20124;-68
2021/04/13 04:12:20;;;;;;;12.25;6.55;;;;;;;7.64;54.72;101606.31;2573797;55;20528;-68
2021/04/13 04:15:03;;;;;;;10.98;6.80;;;;;;;7.61;54.64;101600.28;2573719;55;20114;-67
2021/04/13 04:17:33;;;;;;;13.00;7.28;;;;;;;7.58;55.24;101601.28;2578649;55;20106;-68
2021/04/13 04:20:06;;;;;;;14.80;7.70;;;;;;;7.55;55.28;101604.13;2578709;55;20119;-68
2021/04/13 04:22:37;;;;;;;15.30;7.68;;;;;;;7.49;55.76;101588.47;2578911;55;20165;-68
2021/04/13 04:25:25;;;;;;;12.68;7.40;;;;;;;7.61;55.28;101590.50;2573548;55;20527;-68
2021/04/13 04:27:56;;;;;;;12.70;8.13;;;;;;;7.65;55.78;101599.19;2578810;55;20332;-68
2021/04/13 04:30:27;;;;;;;15.52;7.47;;;;;;;7.77;55.61;101600.41;2573448;55;20120;-67
2021/04/13 04:32:56;;;;;;;16.13;7.63;;;;;;;7.93;54.92;101604.03;2573423;55;20113;-68
2021/04/13 04:35:40;;;;;;;18.25;7.22;;;;;;;8.05;54.60;101599.03;2578795;55;20128;-68
2021/04/13 04:38:26;;;;;;;14.80;7.47;;;;;;;8.30;53.92;101600.44;2573584;55;20144;-68
2021/04/13 04:41:05;;;;;;;12.37;7.15;;;;;;;8.66;53.19;101595.94;2573682;55;20496;-68
2021/04/13 04:43:44;;;;;;;11.57;7.00;;;;;;;8.95;52.45;101599.72;2573651;55;20106;-68
2021/04/13 04:46:35;;;;;;;12.23;7.12;;;;;;;9.26;52.09;101613.16;2578720;55;20496;-68
2021/04/13 04:49:05;;;;;;;14.23;7.07;;;;;;;9.46;50.83;101620.88;2578573;55;20481;-68
2021/04/13 04:51:34;;;;;;;12.68;7.12;;;;;;;9.64;50.74;101622.63;2578698;55;20120;-68
2021/04/13 04:54:03;;;;;;;14.93;7.70;;;;;;;9.83;50.07;101625.94;2573349;55;20117;-68
2021/04/13 04:56:32;;;;;;;10.13;6.03;;;;;;;9.87;50.13;101623.94;2578633;55;20520;-68
2021/04/13 04:59:02;;;;;;;18.40;8.00;;;;;;;9.79;50.13;101627.06;2573444;55;20149;-68
2021/04/13 05:01:32;;;;;;;12.73;7.78;;;;;;;9.72;50.41;101615.00;2573397;55;20105;-68
2021/04/13 05:04:00;;;;;;;16.40;7.12;;;;;;;9.65;51.46;101617.19;2573251;55;20116;-68
2021/04/13 05:06:29;;;;;;;13.93;7.57;;;;;;;9.80;51.31;101630.59;2578479;55;20224;-68
2021/04/13 05:08:57;;;;;;;15.50;7.53;;;;;;;9.90;51.48;101631.78;2578393;55;20798;-68
2021/04/13 05:11:28;;;;;;;11.45;7.55;;;;;;;9.91;51.48;101632.63;2578523;55;20131;-68
2021/04/13 05:13:57;;;;;;;15.55;7.53;;;;;;;9.80;52.14;101638.59;2578427;55;20127;-69
2021/04/13 05:16:26;;;;;;;12.95;8.40;;;;;;;9.71;52.88;101635.50;2573319;55;20113;-68
2021/04/13 05:18:54;;;;;;;15.57;7.20;;;;;;;9.93;52.48;101634.25;2573403;55;20124;-68
2021/04/13 05:21:24;;;;;;;17.48;7.55;;;;;;;10.18;51.79;101627.50;2578412;55;20105;-69
2021/04/13 05:23:52;;;;;;;13.57;7.45;;;;;;;10.44;51.73;101617.09;2573293;55;20567;-68
2021/04/13 05:26:23;;;;;;;10.50;7.43;;;;;;;10.75;51.33;101623.22;2573455;55;20118;-68
2021/04/13 05:28:50;;;;;;;13.70;7.65;;;;;;;11.00;50.78;101619.06;2578284;55;20614;-68
2021/04/13 05:31:20;;;;;;;17.52;7.35;;;;;;;11.17;50.16;101620.66;2573070;55;20136;-68
2021/04/13 05:33:49;;;;;;;19.12;8.38;;;;;;;11.31;49.45;101627.78;2573451;55;20205;-69
2021/04/13 05:36:19;;;;;;;11.23;7.97;;;;;;;11.49;50.44;101624.91;2573336;55;20116;-69
2021/04/13 05:38:49;;;;;;;15.45;8.77;;;;;;;11.58;49.51;101623.44;2578181;55;20117;-68
2021/04/13 05:41:19;;;;;;;14.18;7.90;;;;;;;11.77;49.71;101631.09;2573328;55;20128;-69
2021/04/13 05:43:47;;;;;;;13.75;9.82;;;;;;;11.83;49.79;101626.22;2573355;55;20124;-68
2021/04/13 05:46:22;;;;;;;17.27;9.65;;;;;;;11.92;48.89;101637.25;2573329;55;20505;-68
2021/04/13 05:48:51;;;;;;;15.77;9.40;;;;;;;12.15;49.71;101642.94;2573392;55;20507;-68
2021/04/13 05:51:21;;;;;;;19.92;9.27;;;;;;;12.19;48.79;101639.06;2578541;55;20105;-69
2021/04/13 05:53:48;;;;;;;20.05;10.68;;;;;;;12.19;48.23;101633.72;2578546;55;20121;-69
2021/04/13 05:56:24;;;;;;;18.10;8.98;;;;;;;12.35;48.82;101633.53;2573284;55;20480;-69
2021/04/13 05:58:52;;;;;;;14.50;9.02;;;;;;;12.36;47.70;101629.91;2578450;55;20113;-68
2021/04/13 06:01:25;;;;;;;19.08;9.55;;;;;;;12.38;48.76;101633.34;2573215;55;20145;-68
2021/04/13 06:03:56;;;;;;;16.33;10.18;;;;;;;12.43;48.68;101630.34;2578357;55;20113;-70
2021/04/13 06:06:23;;;;;;;19.00;10.60;;;;;;;12.66;49.09;101632.28;2578308;55;20115;-69
2021/04/13 06:08:51;;;;;;;17.15;10.35;;;;;;;12.80;49.58;101633.13;2578598;55;20128;-69
2021/04/13 06:11:24;;;;;;;17.23;9.77;;;;;;;12.99;48.50;101623.81;2573191;55;20128;-72
2021/04/13 06:14:02;;;;;;;14.13;9.27;;;;;;;13.06;47.72;101633.97;2573453;55;20114;-69
2021/04/13 06:16:36;;;;;;;14.23;9.70;;;;;;;12.86;48.57;101634.53;2567340;55;20512;-68
2021/04/13 06:19:06;;;;;;;13.85;9.25;;;;;;;12.51;49.63;101638.69;2571617;55;20117;-68
2021/04/13 06:21:37;;;;;;;18.92;10.20;;;;;;;12.25;50.59;101628.81;2572135;55;20131;-69
2021/04/13 06:24:15;;;;;;;18.23;10.63;;;;;;;12.23;51.04;101635.25;2568085;55;20128;-69
2021/04/13 06:26:45;;;;;;;17.02;9.98;;;;;;;12.23;51.49;101629.91;2568120;55;20148;-69
2021/04/13 06:29:14;;;;;;;17.33;11.55;;;;;;;12.22;50.90;101628.16;2573186;55;20124;-68
2021/04/13 06:31:42;;;;;;;18.05;10.68;;;;;;;12.16;51.55;101639.28;2573219;55;20536;-69
2021/04/13 06:34:11;;;;;;;16.48;10.00;;;;;;;12.33;51.22;101639.00;2573264;55;20173;-68
2021/04/13 06:36:41;;;;;;;15.30;10.55;;;;;;;12.63;49.95;101645.03;2573414;55;20117;-69
2021/04/13 06:39:13;;;;;;;17.80;11.00;;;;;;;12.68;47.63;101642.03;2568312;55;20128;-69
2021/04/13 06:41:54;;;;;;;18.37;10.63;;;;;;;12.76;47.94;101650.41;2568681;55;20109;-68
2021/04/13 06:45:02;;;;;;;19.37;11.43;;;;;;;13.08;47.77;101656.16;2574102;55;20489;-69
2021/04/13 06:48:25;;;;;;;18.33;11.30;;;;;;;13.49;46.40;101646.13;2565650;55;20121;-69
2021/04/13 06:51:06;;;;;;;15.07;10.48;;;;;;;13.64;46.07;101654.03;2568975;55;20106;-69
2021/04/13 06:53:48;;;;;;;18.70;11.30;;;;;;;13.37;46.18;101657.72;2574194;55;20455;-69
2021/04/13 06:56:59;;;;;;;18.35;12.23;;;;;;;13.15;46.46;101659.25;2568901;55;20530;-69
2021/04/13 07:00:09;;;;;;;16.92;11.77;;;;;;;12.85;46.33;101652.44;2569074;55;20109;-69
2021/04/13 07:02:58;;;;;;;20.08;11.75;;;;;;;12.60;46.26;101654.13;2561315;55;20748;-68
2021/04/13 07:05:32;;;;;;;17.48;11.57;;;;;;;12.52;47.34;101656.47;2568842;55;20133;-68
2021/04/13 07:08:06;;;;;;;18.92;11.25;;;;;;;12.64;47.58;101652.09;2569000;55;20168;-69
2021/04/13 07:10:43;;;;;;;22.05;11.30;;;;;;;12.85;46.91;101663.16;2568932;55;20110;-70
2021/04/13 07:13:19;;;;;;;17.35;11.63;;;;;;;13.11;46.80;101668.47;2574059;55;21440;-70
2021/04/13 07:15:55;;;;;;;23.50;12.65;;;;;;;13.08;46.51;101674.94;2568973;55;20109;-70
2021/04/13 07:18:29;;;;;;;17.35;11.88;;;;;;;13.12;46.98;101675.53;2568794;55;20125;-70
2021/04/13 07:21:01;;;;;;;18.23;12.77;;;;;;;13.17;47.10;101681.44;2568794;55;20113;-70
2021/04/13 07:23:35;;;;;;;17.58;12.00;;;;;;;13.13;46.91;101674.59;2573938;55;20185;-69
2021/04/13 07:26:08;;;;;;;18.70;11.85;;;;;;;13.22;47.16;101671.25;2573988;55;20153;-70
2021/04/13 07:28:41;;;;;;;20.02;11.95;;;;;;;13.35;46.10;101665.03;2573718;55;20169;-69
2021/04/13 07:31:14;;;;;;;16.62;9.77;;;;;;;13.49;45.83;101659.53;2573896;55;20109;-70
2021/04/13 07:33:45;;;;;;;20.45;12.82;;;;;;;13.41;45.85;101669.06;2568954;55;20139;-69
2021/04/13 07:36:21;;;;;;;24.92;16.15;;;;;;;13.45;45.31;101665.22;2568721;55;20105;-69
2021/04/13 07:38:53;;;;;;;26.20;13.68;;;;;;;13.41;45.64;101669.91;2569162;55;20105;-70
2021/04/13 07:41:30;;;;;;;19.27;14.38;;;;;;;13.47;45.65;101664.16;2568883;55;20122;-70
2021/04/13 07:44:06;;;;;;;23.75;14.57;;;;;;;13.60;46.84;101663.25;2568750;55;20126;-70
2021/04/13 07:46:48;;;;;;;22.40;12.98;;;;;;;13.72;46.20;101666.88;2573720;55;20117;-70
2021/04/13 07:49:23;;;;;;;19.90;13.23;;;;;;;14.08;45.72;101664.25;2573732;55;20113;-70
2021/04/13 07:51:59;;;;;;;19.20;13.25;;;;;;;14.36;44.52;101671.06;2568431;55;20109;-67
2021/04/13 07:54:40;;;;;;;23.42;13.18;;;;;;;14.66;44.35;101664.28;2568620;55;20669;-70
2021/04/13 07:57:22;;;;;;;15.80;11.85;;;;;;;14.78;43.79;101670.56;2573853;55;20124;-70
2021/04/13 08:00:14;;;;;;;20.08;12.85;;;;;;;15.11;42.32;101666.19;2568668;55;20113;-70
2021/04/13 08:02:49;;;;;;;20.50;12.80;;;;;;;15.13;42.58;101658.03;2568693;55;20117;-67
2021/04/13 08:05:38;;;;;;;14.90;11.80;;;;;;;15.18;41.75;101668.41;2574073;55;20109;-67
2021/04/13 08:08:17;;;;;;;19.23;12.23;;;;;;;15.19;42.16;101667.44;2568739;55;20110;-68
2021/04/13 08:10:46;;;;;;;18.70;11.90;;;;;;;15.38;40.45;101672.16;2574045;55;20118;-68
2021/04/13 08:13:29;;;;;;;19.87;11.88;;;;;;;15.32;42.00;101657.37;2573524;55;20114;-67
2021/04/13 08:15:56;;;;;;;17.85;11.73;;;;;;;15.58;41.86;101668.75;2568610;55;20125;-68
2021/04/13 08:18:32;;;;;;;19.30;13.05;;;;;;;15.98;41.25;101664.63;2568756;55;20121;-67
2021/04/13 08:21:21;;;;;;;18.80;12.70;;;;;;;16.07;39.50;101657.59;2573735;55;20124;-68
2021/04/13 08:23:51;;;;;;;21.35;12.65;;;;;;;15.99;42.34;101666.31;2573639;55;20117;-67
2021/04/13 08:26:41;;;;;;;19.23;12.65;;;;;;;16.23;40.35;101659.00;2573993;55;20161;-68
2021/04/13 08:29:37;;;;;;;20.20;12.90;;;;;;;16.37;40.37;101663.22;2568569;55;20114;-67
2021/04/13 08:35:14;;;;;;;19.65;13.18;;;;;;;16.13;39.17;101656.22;2568556;55;20118;-70
2021/04/13 08:38:03;;;;;;;18.92;13.20;;;;;;;16.30;39.71;101662.91;2573798;55;20113;-70
2021/04/13 08:40:36;;;;;;;20.90;13.15;;;;;;;16.48;39.53;101665.84;2573695;55;20167;-70
2021/04/13 08:43:21;;;;;;;22.05;12.80;;;;;;;16.78;39.80;101664.19;2573627;55;20114;-70
2021/04/13 08:46:10;;;;;;;17.50;12.55;;;;;;;17.01;39.51;101660.50;2568545;55;20132;-71
2021/04/13 08:48:45;;;;;;;16.48;12.75;;;;;;;17.00;38.42;101664.16;2568551;55;20135;-70
2021/04/13 08:51:14;;;;;;;17.85;11.95;;;;;;;16.98;36.89;101661.59;2573681;55;20198;-70
2021/04/13 08:53:49;;;;;;;18.75;12.37;;;;;;;17.13;36.51;101658.56;2573585;55;20135;-70
2021/04/13 08:56:25;;;;;;;18.95;12.10;;;;;;;17.20;37.64;101647.13;2568408;55;20117;-69
2021/04/13 08:58:55;;;;;;;18.33;10.85;;;;;;;17.17;36.69;101658.16;2573861;55;20127;-67
2021/04/13 09:01:34;;;;;;;21.10;13.57;;;;;;;17.18;37.44;101661.72;2568735;55;20555;-68
2021/04/13 09:04:06;;;;;;;20.30;10.90;;;;;;;17.10;37.26;101667.78;2568139;55;20117;-68
2021/04/13 09:06:55;;;;;;;20.65;12.90;;;;;;;17.22;37.61;101664.00;2568820;55;20132;-68
2021/04/13 09:09:40;;;;;;;21.87;11.93;;;;;;;17.29;37.00;101648.13;2568407;55;20132;-68
2021/04/13 09:12:23;;;;;;;19.73;11.68;;;;;;;17.17;37.31;101658.16;2568431;55;20132;-67
2021/04/13 09:14:52;;;;;;;;;;;;;;;17.56;36.59;101649.34;2568809;55;20544;-67
2021/04/13 09:17:32;;;;;;;14.45;10.25;;;;;;;17.43;37.48;101646.03;2568491;55;19989;-68
2021/04/13 09:20:13;;;;;;;19.20;11.00;;;;;;;17.48;36.27;101646.47;2573470;55;20131;-67
2021/04/13 09:22:54;;;;;;;23.42;11.75;;;;;;;17.46;36.71;101635.81;2573462;55;20548;-68
2021/04/13 09:25:33;;;;;;;22.87;11.07;;;;;;;17.48;36.77;101641.06;2573495;55;20121;-68
2021/04/13 09:28:08;;;;;;;;;;;;;;;17.92;36.41;101638.84;2568718;55;20131;-68
2021/04/13 09:30:37;;;;;;;24.55;12.55;;;;;;;17.65;36.32;101645.81;2573615;55;20005;-68
2021/04/13 09:33:28;;;;;;;18.73;11.38;;;;;;;17.96;36.94;101639.41;2568488;55;20109;-69
2021/04/13 09:36:19;;;;;;;20.23;13.43;;;;;;;18.11;37.05;101634.47;2573636;55;20128;-69
2021/04/13 09:39:23;;;;;;;23.45;14.05;;;;;;;18.11;37.74;101637.19;2573608;55;20128;-69
2021/04/13 09:42:07;;;;;;;18.00;12.95;;;;;;;18.30;37.38;101635.47;2568484;55;20144;-67
2021/04/13 09:45:05;;;;;;;19.70;13.35;;;;;;;18.47;36.56;101639.25;2573533;55;20130;-68
2021/04/13 09:48:15;;;;;;;19.95;12.88;;;;;;;18.24;36.67;101633.31;2573572;55;20109;-68
2021/04/13 09:51:01;;;;;;;22.05;13.05;;;;;;;18.28;36.82;101637.47;2561097;55;20118;-68
2021/04/13 09:53:53;;;;;;;19.08;12.90;;;;;;;18.31;36.43;101632.63;2568726;55;20118;-68
2021/04/13 09:56:45;;;;;;;16.95;12.98;;;;;;;18.32;36.08;101626.22;2565243;55;20620;-68
2021/04/13 09:59:39;;;;;;;20.92;13.70;;;;;;;18.18;35.62;101615.84;2573413;55;20127;-68
2021/04/13 10:02:19;;;;;;;18.62;12.88;;;;;;;18.24;37.85;101625.22;2573302;55;20622;-68
2021/04/13 10:04:58;;;;;;;18.67;12.83;;;;;;;18.26;36.39;101620.56;2573230;55;20109;-68
2021/04/13 10:07:33;;;;;;;22.60;12.90;;;;;;;18.35;35.24;101617.81;2573580;55;20108;-68
2021/04/13 10:10:07;;;;;;;18.05;13.30;;;;;;;18.46;35.47;101608.72;2573355;55;20118;-68
2021/04/13 10:13:35;;;;;;;20.55;13.75;;;;;;;18.98;35.23;101611.94;2568005;55;20128;-68
2021/04/13 10:16:09;;;;;;;40.40;23.85;;;;;;;19.16;35.34;101612.03;2556078;55;20136;-68
2021/04/13 10:19:20;;;;;;;35.88;21.48;;;;;;;19.29;34.60;101626.03;2568459;55;20118;-68
2021/04/13 10:22:14;;;;;;;34.53;21.12;;;;;;;19.29;35.20;101627.88;2573421;55;20135;-68
2021/04/13 10:25:17;;;;;;;34.45;20.08;;;;;;;19.24;34.69;101622.09;2568282;55;20125;-68
2021/04/13 10:28:21;;;;;;;28.12;18.27;;;;;;;19.35;35.49;101627.28;2568245;55;20144;-68
2021/04/13 10:31:27;;;;;;;34.05;19.75;;;;;;;19.19;35.26;101625.25;2573464;55;20516;-69
2021/04/13 10:34:43;;;;;;;30.85;18.90;;;;;;;18.92;34.93;101626.91;2567914;55;20621;-68
2021/04/13 10:37:50;;;;;;;44.88;25.67;;;;;;;18.71;35.59;101622.56;2573206;55;20176;-68
2021/04/13 10:40:44;;;;;;;50.72;28.12;;;;;;;18.52;36.73;101614.50;2573350;55;20147;-68
2021/04/13 10:43:54;;;;;;;57.88;29.67;;;;;;;18.49;37.09;101608.41;2568132;55;20109;-68
2021/04/13 10:46:31;;;;;;;65.90;32.80;;;;;;;18.31;37.83;101604.75;2562854;55;20128;-68
2021/04/13 10:50:07;;;;;;;55.10;31.75;;;;;;;18.58;37.34;101606.66;2568410;55;20498;-68
2021/04/13 10:53:02;;;;;;;62.25;35.80;;;;;;;18.49;37.56;101615.69;2573501;55;20117;-68
2021/04/13 10:55:50;;;;;;;74.35;44.97;;;;;;;18.36;37.59;101610.59;2573121;55;20496;-68
2021/04/13 10:58:54;;;;;;;71.47;42.70;;;;;;;18.31;37.20;101604.75;2568015;55;20133;-68
2021/04/13 11:01:58;;;;;;;69.07;41.55;;;;;;;18.25;37.26;101602.66;2568251;55;20114;-68
2021/04/13 11:05:03;;;;;;;65.18;38.17;;;;;;;18.07;37.00;101598.81;2565222;55;20110;-70
2021/04/13 11:08:13;;;;;;;55.65;34.20;;;;;;;17.97;37.71;101607.91;2567998;55;20619;-70
2021/04/13 11:11:21;;;;;;;55.75;33.83;;;;;;;18.00;38.09;101613.00;2573026;55;20118;-70
2021/04/13 11:14:25;;;;;;;60.45;32.25;;;;;;;18.11;38.26;101604.78;2565702;55;20117;-69
2021/04/13 11:17:42;;;;;;;45.28;27.60;;;;;;;18.04;37.79;101615.31;2569573;55;20136;-68
2021/04/13 11:20:25;;;;;;;45.72;26.20;;;;;;;17.96;37.83;101614.28;2572313;55;20157;-68
2021/04/13 11:23:32;;;;;;;54.85;24.67;;;;;;;18.10;38.31;101616.56;2568113;55;20603;-68
2021/04/13 11:26:32;;;;;;;40.08;23.20;;;;;;;18.13;37.74;101613.56;2568110;55;20144;-68
2021/04/13 11:29:49;;;;;;;40.85;23.50;;;;;;;18.27;38.28;101614.16;2568587;55;20118;-68
2021/04/13 11:32:49;;;;;;;39.50;23.70;;;;;;;18.30;38.27;101614.72;2567911;55;20124;-68
2021/04/13 11:35:23;;;;;;;46.20;26.23;;;;;;;18.21;37.92;101616.41;2568858;55;20140;-68
2021/04/13 11:38:26;;;;;;;49.75;32.50;;;;;;;18.02;38.64;101608.31;2573896;55;20691;-68
2021/04/13 11:41:20;;;;;;;56.72;34.30;;;;;;;18.15;39.96;101611.59;2556851;56;20107;-69
2021/04/13 11:43:53;;;;;;;58.85;33.20;;;;;;;17.97;40.50;101618.69;2556852;56;20644;-69
2021/04/13 11:46:31;;;;;;;63.65;31.85;;;;;;;17.90;40.53;101611.16;2568315;55;20627;-68
2021/04/13 11:49:03;;;;;;;59.20;33.08;;;;;;;17.74;40.23;101614.41;2568617;55;20120;-69
2021/04/13 11:51:43;;;;;;;52.55;26.90;;;;;;;17.79;41.28;101605.91;2568831;55;20121;-69
2021/04/13 11:54:44;;;;;;;57.83;26.90;;;;;;;17.85;41.01;101615.28;2573753;55;20121;-68
2021/04/13 11:57:16;;;;;;;39.95;22.95;;;;;;;17.57;40.78;101615.97;2568412;55;20106;-68
2021/04/13 12:00:19;;;;;;;40.83;26.47;;;;;;;17.64;40.09;101619.81;2573906;55;20663;-68
2021/04/13 12:03:07;;;;;;;51.00;27.23;;;;;;;17.43;40.18;101616.34;2573550;55;20109;-69
2021/04/13 12:05:45;;;;;;;47.40;29.55;;;;;;;17.25;41.07;101619.75;2574022;55;20119;-72
2021/04/13 12:08:50;;;;;;;56.10;35.45;;;;;;;17.43;40.91;101605.56;2568664;55;20622;-70
2021/04/13 12:11:48;;;;;;;58.47;35.90;;;;;;;17.30;41.33;101612.06;2573797;55;20494;-70
2021/04/13 12:14:41;;;;;;;55.00;33.88;;;;;;;17.29;40.74;101596.88;2571846;55;20114;-70
2021/04/13 12:17:27;;;;;;;63.10;33.58;;;;;;;17.10;42.07;101598.53;2573684;55;20122;-71